Pickleville, Utah
Current Conditions -  °F | °C
As of 12:51 AM on Monday 24 Nov 2014 (Local Time) from KLGU Reporting Station
Overcast Overcast  
Wind Chill: 28°   Ceiling: 6000
Heat Index: 34°   Visibility: 10mi
Dew Point: 25°   Wind: 7mph
Humidity: 70%   Direction: 150°SSE
Pressure: 30.15"   Gusts: NA
Location:  41.9408°N, 111.433°W
Report Text: KLGU 240751Z AUTO 15006KT 10SM BKN060 OVC075 01/M04 A3015 RMK AO2 SLP218 T00111039
Loading
Personal Weather Stations






























Interactive Weather Map New forecast layout! Learn more

10-Day Weather Forecast

Advertisements
Track Severe Weather on mobile